sensor_id;sensor_type;location;lat;lon;timestamp;P1;durP1;ratioP1;P2;durP2;ratioP2
4508;SDS011;2267;48.816;9.230;2023-07-30T00:00:33;5.80;;;3.00;;
4508;SDS011;2267;48.816;9.230;2023-07-30T00:03:00;3.97;;;2.83;;
4508;SDS011;2267;48.816;9.230;2023-07-30T00:05:27;3.60;;;2.67;;
4508;SDS011;2267;48.816;9.230;2023-07-30T00:07:54;4.13;;;3.37;;
4508;SDS011;2267;48.816;9.230;2023-07-30T00:10:21;4.23;;;2.80;;
4508;SDS011;2267;48.816;9.230;2023-07-30T00:12:48;2.97;;;2.50;;
4508;SDS011;2267;48.816;9.230;2023-07-30T00:15:15;3.10;;;2.50;;
4508;SDS011;2267;48.816;9.230;2023-07-30T00:17:42;3.27;;;2.40;;
4508;SDS011;2267;48.816;9.230;2023-07-30T00:20:09;3.40;;;2.23;;
4508;SDS011;2267;48.816;9.230;2023-07-30T00:22:36;4.27;;;2.43;;
4508;SDS011;2267;48.816;9.230;2023-07-30T00:25:02;5.40;;;2.37;;
4508;SDS011;2267;48.816;9.230;2023-07-30T00:27:30;2.67;;;2.00;;
4508;SDS011;2267;48.816;9.230;2023-07-30T00:29:56;3.40;;;2.00;;
4508;SDS011;2267;48.816;9.230;2023-07-30T00:32:23;2.97;;;1.63;;
4508;SDS011;2267;48.816;9.230;2023-07-30T00:34:50;2.70;;;1.60;;
4508;SDS011;2267;48.816;9.230;2023-07-30T00:37:17;2.70;;;2.10;;
4508;SDS011;2267;48.816;9.230;2023-07-30T00:39:44;3.80;;;2.20;;
4508;SDS011;2267;48.816;9.230;2023-07-30T00:42:10;2.80;;;1.90;;
4508;SDS011;2267;48.816;9.230;2023-07-30T00:44:37;4.03;;;1.60;;
4508;SDS011;2267;48.816;9.230;2023-07-30T00:47:04;2.30;;;1.50;;
4508;SDS011;2267;48.816;9.230;2023-07-30T00:49:31;2.27;;;1.70;;
4508;SDS011;2267;48.816;9.230;2023-07-30T00:51:58;3.33;;;2.47;;
4508;SDS011;2267;48.816;9.230;2023-07-30T00:54:26;2.00;;;1.60;;
4508;SDS011;2267;48.816;9.230;2023-07-30T00:56:53;3.03;;;1.50;;
4508;SDS011;2267;48.816;9.230;2023-07-30T00:59:20;2.40;;;1.80;;
4508;SDS011;2267;48.816;9.230;2023-07-30T01:01:48;2.47;;;1.87;;
4508;SDS011;2267;48.816;9.230;2023-07-30T01:04:17;3.87;;;2.00;;
4508;SDS011;2267;48.816;9.230;2023-07-30T01:06:44;3.07;;;2.00;;
4508;SDS011;2267;48.816;9.230;2023-07-30T01:09:11;2.57;;;1.70;;
4508;SDS011;2267;48.816;9.230;2023-07-30T01:11:38;2.43;;;1.80;;
4508;SDS011;2267;48.816;9.230;2023-07-30T01:14:06;3.40;;;2.27;;
4508;SDS011;2267;48.816;9.230;2023-07-30T01:16:35;4.40;;;1.90;;
4508;SDS011;2267;48.816;9.230;2023-07-30T01:19:02;2.87;;;1.70;;
4508;SDS011;2267;48.816;9.230;2023-07-30T01:21:39;2.93;;;1.80;;
4508;SDS011;2267;48.816;9.230;2023-07-30T01:24:06;2.47;;;2.03;;
4508;SDS011;2267;48.816;9.230;2023-07-30T01:26:37;2.87;;;2.23;;
4508;SDS011;2267;48.816;9.230;2023-07-30T01:29:22;2.30;;;1.93;;
4508;SDS011;2267;48.816;9.230;2023-07-30T01:32:02;4.67;;;2.30;;
4508;SDS011;2267;48.816;9.230;2023-07-30T01:34:34;2.97;;;2.03;;
4508;SDS011;2267;48.816;9.230;2023-07-30T01:37:01;2.50;;;2.10;;
4508;SDS011;2267;48.816;9.230;2023-07-30T01:39:29;3.50;;;2.43;;
4508;SDS011;2267;48.816;9.230;2023-07-30T01:41:57;5.60;;;2.57;;
4508;SDS011;2267;48.816;9.230;2023-07-30T01:44:24;4.40;;;2.30;;
4508;SDS011;2267;48.816;9.230;2023-07-30T01:46:50;3.30;;;2.00;;
4508;SDS011;2267;48.816;9.230;2023-07-30T01:49:17;2.90;;;2.60;;
4508;SDS011;2267;48.816;9.230;2023-07-30T01:51:44;3.33;;;2.67;;
4508;SDS011;2267;48.816;9.230;2023-07-30T01:54:11;4.83;;;2.07;;
4508;SDS011;2267;48.816;9.230;2023-07-30T01:56:37;2.83;;;2.53;;
4508;SDS011;2267;48.816;9.230;2023-07-30T01:59:05;5.10;;;2.40;;
4508;SDS011;2267;48.816;9.230;2023-07-30T02:01:32;4.90;;;2.83;;
4508;SDS011;2267;48.816;9.230;2023-07-30T02:03:59;3.37;;;3.07;;
4508;SDS011;2267;48.816;9.230;2023-07-30T02:06:25;3.53;;;3.20;;
4508;SDS011;2267;48.816;9.230;2023-07-30T02:08:52;3.63;;;2.57;;
4508;SDS011;2267;48.816;9.230;2023-07-30T02:11:19;3.67;;;2.97;;
4508;SDS011;2267;48.816;9.230;2023-07-30T02:13:46;3.17;;;2.80;;
4508;SDS011;2267;48.816;9.230;2023-07-30T02:16:13;6.37;;;3.37;;
4508;SDS011;2267;48.816;9.230;2023-07-30T02:18:40;3.37;;;2.90;;
4508;SDS011;2267;48.816;9.230;2023-07-30T02:21:06;4.23;;;3.43;;
4508;SDS011;2267;48.816;9.230;2023-07-30T02:23:33;3.70;;;3.40;;
4508;SDS011;2267;48.816;9.230;2023-07-30T02:26:00;2.90;;;2.60;;
4508;SDS011;2267;48.816;9.230;2023-07-30T02:28:27;3.13;;;2.90;;
4508;SDS011;2267;48.816;9.230;2023-07-30T02:30:54;4.67;;;3.40;;
4508;SDS011;2267;48.816;9.230;2023-07-30T02:33:20;3.13;;;2.80;;
4508;SDS011;2267;48.816;9.230;2023-07-30T02:35:47;5.80;;;3.00;;
4508;SDS011;2267;48.816;9.230;2023-07-30T02:38:14;3.47;;;3.10;;
4508;SDS011;2267;48.816;9.230;2023-07-30T02:40:41;3.70;;;2.80;;
4508;SDS011;2267;48.816;9.230;2023-07-30T02:43:07;5.47;;;2.97;;
4508;SDS011;2267;48.816;9.230;2023-07-30T02:45:34;4.10;;;2.80;;
4508;SDS011;2267;48.816;9.230;2023-07-30T02:48:01;3.47;;;3.17;;
4508;SDS011;2267;48.816;9.230;2023-07-30T02:50:29;3.90;;;2.53;;
4508;SDS011;2267;48.816;9.230;2023-07-30T02:52:55;4.43;;;2.77;;
4508;SDS011;2267;48.816;9.230;2023-07-30T02:55:22;4.43;;;2.70;;
4508;SDS011;2267;48.816;9.230;2023-07-30T02:57:49;3.07;;;2.70;;
4508;SDS011;2267;48.816;9.230;2023-07-30T03:00:16;3.40;;;2.47;;
4508;SDS011;2267;48.816;9.230;2023-07-30T03:02:43;4.47;;;2.80;;
4508;SDS011;2267;48.816;9.230;2023-07-30T03:05:10;4.30;;;3.50;;
4508;SDS011;2267;48.816;9.230;2023-07-30T03:07:37;4.47;;;2.50;;
4508;SDS011;2267;48.816;9.230;2023-07-30T03:10:04;3.33;;;3.00;;
4508;SDS011;2267;48.816;9.230;2023-07-30T03:12:31;3.13;;;2.83;;
4508;SDS011;2267;48.816;9.230;2023-07-30T03:14:58;3.83;;;3.43;;
4508;SDS011;2267;48.816;9.230;2023-07-30T03:17:25;4.77;;;3.30;;
4508;SDS011;2267;48.816;9.230;2023-07-30T03:19:52;3.47;;;2.93;;
4508;SDS011;2267;48.816;9.230;2023-07-30T03:22:19;5.57;;;3.13;;
4508;SDS011;2267;48.816;9.230;2023-07-30T03:24:46;4.80;;;3.27;;
4508;SDS011;2267;48.816;9.230;2023-07-30T03:27:13;4.40;;;3.90;;
4508;SDS011;2267;48.816;9.230;2023-07-30T03:29:40;3.90;;;3.30;;
4508;SDS011;2267;48.816;9.230;2023-07-30T03:32:07;4.10;;;3.23;;
4508;SDS011;2267;48.816;9.230;2023-07-30T03:34:34;4.07;;;3.73;;
4508;SDS011;2267;48.816;9.230;2023-07-30T03:37:01;4.50;;;2.97;;
4508;SDS011;2267;48.816;9.230;2023-07-30T03:39:27;3.50;;;3.20;;
4508;SDS011;2267;48.816;9.230;2023-07-30T03:41:54;3.83;;;3.10;;
4508;SDS011;2267;48.816;9.230;2023-07-30T03:44:21;4.73;;;4.00;;
4508;SDS011;2267;48.816;9.230;2023-07-30T03:46:48;5.00;;;3.37;;
4508;SDS011;2267;48.816;9.230;2023-07-30T03:49:15;6.50;;;3.20;;
4508;SDS011;2267;48.816;9.230;2023-07-30T03:51:42;3.90;;;3.50;;
4508;SDS011;2267;48.816;9.230;2023-07-30T03:54:09;3.70;;;3.23;;
4508;SDS011;2267;48.816;9.230;2023-07-30T03:56:36;9.13;;;4.17;;
4508;SDS011;2267;48.816;9.230;2023-07-30T03:59:02;5.50;;;3.63;;
4508;SDS011;2267;48.816;9.230;2023-07-30T04:01:29;4.80;;;3.47;;
4508;SDS011;2267;48.816;9.230;2023-07-30T04:03:56;3.37;;;3.10;;
4508;SDS011;2267;48.816;9.230;2023-07-30T04:06:23;4.10;;;3.67;;
4508;SDS011;2267;48.816;9.230;2023-07-30T04:08:50;4.17;;;3.83;;
4508;SDS011;2267;48.816;9.230;2023-07-30T04:11:17;4.23;;;3.47;;
4508;SDS011;2267;48.816;9.230;2023-07-30T04:13:44;3.73;;;3.43;;
4508;SDS011;2267;48.816;9.230;2023-07-30T04:16:11;5.43;;;3.63;;
4508;SDS011;2267;48.816;9.230;2023-07-30T04:18:38;4.13;;;3.80;;
4508;SDS011;2267;48.816;9.230;2023-07-30T04:21:04;3.53;;;3.23;;
4508;SDS011;2267;48.816;9.230;2023-07-30T04:23:31;5.10;;;3.80;;
4508;SDS011;2267;48.816;9.230;2023-07-30T04:25:58;4.57;;;3.63;;
4508;SDS011;2267;48.816;9.230;2023-07-30T04:28:25;4.57;;;4.17;;
4508;SDS011;2267;48.816;9.230;2023-07-30T04:30:52;4.03;;;2.70;;
4508;SDS011;2267;48.816;9.230;2023-07-30T04:33:19;6.40;;;3.13;;
4508;SDS011;2267;48.816;9.230;2023-07-30T04:35:45;3.30;;;2.97;;
4508;SDS011;2267;48.816;9.230;2023-07-30T04:38:12;3.30;;;3.00;;
4508;SDS011;2267;48.816;9.230;2023-07-30T04:40:39;4.60;;;3.40;;
4508;SDS011;2267;48.816;9.230;2023-07-30T04:43:06;3.50;;;3.20;;
4508;SDS011;2267;48.816;9.230;2023-07-30T04:45:34;3.43;;;2.60;;
4508;SDS011;2267;48.816;9.230;2023-07-30T04:48:01;7.37;;;3.20;;
4508;SDS011;2267;48.816;9.230;2023-07-30T04:50:28;4.30;;;2.73;;
4508;SDS011;2267;48.816;9.230;2023-07-30T04:52:55;6.00;;;3.37;;
4508;SDS011;2267;48.816;9.230;2023-07-30T04:55:21;3.90;;;3.37;;
4508;SDS011;2267;48.816;9.230;2023-07-30T04:57:48;4.70;;;3.63;;
4508;SDS011;2267;48.816;9.230;2023-07-30T05:00:15;3.73;;;3.30;;
4508;SDS011;2267;48.816;9.230;2023-07-30T05:02:43;3.40;;;3.10;;
4508;SDS011;2267;48.816;9.230;2023-07-30T05:05:10;3.40;;;3.10;;
4508;SDS011;2267;48.816;9.230;2023-07-30T05:07:36;4.10;;;3.77;;
4508;SDS011;2267;48.816;9.230;2023-07-30T05:10:04;3.53;;;3.23;;
4508;SDS011;2267;48.816;9.230;2023-07-30T05:12:33;3.70;;;3.10;;
4508;SDS011;2267;48.816;9.230;2023-07-30T05:14:59;4.07;;;3.47;;
4508;SDS011;2267;48.816;9.230;2023-07-30T05:17:26;6.53;;;3.87;;
4508;SDS011;2267;48.816;9.230;2023-07-30T05:19:53;4.00;;;3.33;;
4508;SDS011;2267;48.816;9.230;2023-07-30T05:22:20;8.00;;;3.60;;
4508;SDS011;2267;48.816;9.230;2023-07-30T05:24:47;3.67;;;3.37;;
4508;SDS011;2267;48.816;9.230;2023-07-30T05:27:13;3.83;;;3.53;;
4508;SDS011;2267;48.816;9.230;2023-07-30T05:29:40;3.33;;;2.90;;
4508;SDS011;2267;48.816;9.230;2023-07-30T05:32:07;3.87;;;2.97;;
4508;SDS011;2267;48.816;9.230;2023-07-30T05:34:34;6.17;;;3.10;;
4508;SDS011;2267;48.816;9.230;2023-07-30T05:37:01;2.70;;;2.50;;
4508;SDS011;2267;48.816;9.230;2023-07-30T05:39:28;3.13;;;2.50;;
4508;SDS011;2267;48.816;9.230;2023-07-30T05:41:55;3.40;;;3.10;;
4508;SDS011;2267;48.816;9.230;2023-07-30T05:44:22;3.80;;;3.33;;
4508;SDS011;2267;48.816;9.230;2023-07-30T05:46:49;5.30;;;3.00;;
4508;SDS011;2267;48.816;9.230;2023-07-30T05:49:16;2.60;;;2.40;;
4508;SDS011;2267;48.816;9.230;2023-07-30T05:51:42;5.83;;;2.50;;
4508;SDS011;2267;48.816;9.230;2023-07-30T05:54:09;4.97;;;2.97;;
4508;SDS011;2267;48.816;9.230;2023-07-30T05:56:36;3.27;;;2.27;;
4508;SDS011;2267;48.816;9.230;2023-07-30T05:59:03;2.50;;;2.00;;
4508;SDS011;2267;48.816;9.230;2023-07-30T06:01:30;4.43;;;2.23;;
4508;SDS011;2267;48.816;9.230;2023-07-30T06:03:56;2.97;;;2.00;;
4508;SDS011;2267;48.816;9.230;2023-07-30T06:06:23;2.50;;;1.60;;
4508;SDS011;2267;48.816;9.230;2023-07-30T06:08:54;2.10;;;1.60;;
4508;SDS011;2267;48.816;9.230;2023-07-30T06:11:21;2.83;;;1.80;;
4508;SDS011;2267;48.816;9.230;2023-07-30T06:13:48;2.67;;;1.90;;
4508;SDS011;2267;48.816;9.230;2023-07-30T06:16:16;4.47;;;1.97;;
4508;SDS011;2267;48.816;9.230;2023-07-30T06:18:44;2.30;;;2.00;;
4508;SDS011;2267;48.816;9.230;2023-07-30T06:21:11;2.57;;;2.23;;
4508;SDS011;2267;48.816;9.230;2023-07-30T06:23:38;2.73;;;1.63;;
4508;SDS011;2267;48.816;9.230;2023-07-30T06:26:05;2.20;;;1.83;;
4508;SDS011;2267;48.816;9.230;2023-07-30T06:28:31;2.93;;;1.73;;
4508;SDS011;2267;48.816;9.230;2023-07-30T06:31:02;2.77;;;2.30;;
4508;SDS011;2267;48.816;9.230;2023-07-30T06:33:29;3.40;;;1.97;;
4508;SDS011;2267;48.816;9.230;2023-07-30T06:35:58;2.80;;;2.60;;
4508;SDS011;2267;48.816;9.230;2023-07-30T06:38:25;2.73;;;2.20;;
4508;SDS011;2267;48.816;9.230;2023-07-30T06:40:52;2.83;;;2.00;;
4508;SDS011;2267;48.816;9.230;2023-07-30T06:43:19;3.60;;;2.50;;
4508;SDS011;2267;48.816;9.230;2023-07-30T06:45:45;3.10;;;2.60;;
4508;SDS011;2267;48.816;9.230;2023-07-30T06:48:12;2.80;;;2.40;;
4508;SDS011;2267;48.816;9.230;2023-07-30T06:50:41;3.40;;;3.10;;
4508;SDS011;2267;48.816;9.230;2023-07-30T06:53:08;3.27;;;2.97;;
4508;SDS011;2267;48.816;9.230;2023-07-30T06:55:35;4.20;;;3.30;;
4508;SDS011;2267;48.816;9.230;2023-07-30T06:58:02;2.93;;;2.63;;
4508;SDS011;2267;48.816;9.230;2023-07-30T07:00:29;2.30;;;1.77;;
4508;SDS011;2267;48.816;9.230;2023-07-30T07:02:55;4.83;;;2.77;;
4508;SDS011;2267;48.816;9.230;2023-07-30T07:05:22;4.60;;;2.70;;
4508;SDS011;2267;48.816;9.230;2023-07-30T07:07:49;2.90;;;2.40;;
4508;SDS011;2267;48.816;9.230;2023-07-30T07:10:16;3.27;;;2.97;;
4508;SDS011;2267;48.816;9.230;2023-07-30T07:12:43;3.57;;;2.63;;
4508;SDS011;2267;48.816;9.230;2023-07-30T07:15:10;3.30;;;2.40;;
4508;SDS011;2267;48.816;9.230;2023-07-30T07:17:37;3.10;;;2.80;;
4508;SDS011;2267;48.816;9.230;2023-07-30T07:20:04;2.73;;;2.53;;
4508;SDS011;2267;48.816;9.230;2023-07-30T07:22:33;2.97;;;2.70;;
4508;SDS011;2267;48.816;9.230;2023-07-30T07:25:00;3.20;;;2.90;;
4508;SDS011;2267;48.816;9.230;2023-07-30T07:27:27;2.80;;;2.50;;
4508;SDS011;2267;48.816;9.230;2023-07-30T07:29:54;3.20;;;2.60;;
4508;SDS011;2267;48.816;9.230;2023-07-30T07:34:48;2.50;;;2.10;;
4508;SDS011;2267;48.816;9.230;2023-07-30T07:37:15;3.80;;;2.57;;
4508;SDS011;2267;48.816;9.230;2023-07-30T07:39:45;3.03;;;2.67;;
4508;SDS011;2267;48.816;9.230;2023-07-30T07:42:12;3.30;;;2.50;;
4508;SDS011;2267;48.816;9.230;2023-07-30T07:44:39;4.63;;;2.33;;
4508;SDS011;2267;48.816;9.230;2023-07-30T07:47:06;2.80;;;1.73;;
4508;SDS011;2267;48.816;9.230;2023-07-30T07:49:32;4.20;;;2.33;;
4508;SDS011;2267;48.816;9.230;2023-07-30T07:51:59;2.60;;;1.83;;
4508;SDS011;2267;48.816;9.230;2023-07-30T07:54:26;2.50;;;1.90;;
4508;SDS011;2267;48.816;9.230;2023-07-30T07:56:53;2.57;;;1.87;;
4508;SDS011;2267;48.816;9.230;2023-07-30T07:59:20;2.13;;;1.80;;
4508;SDS011;2267;48.816;9.230;2023-07-30T08:01:46;2.63;;;1.97;;
4508;SDS011;2267;48.816;9.230;2023-07-30T08:04:13;2.20;;;1.47;;
4508;SDS011;2267;48.816;9.230;2023-07-30T08:06:40;1.90;;;1.40;;
4508;SDS011;2267;48.816;9.230;2023-07-30T08:09:07;2.63;;;1.83;;
4508;SDS011;2267;48.816;9.230;2023-07-30T08:11:34;3.07;;;2.13;;
4508;SDS011;2267;48.816;9.230;2023-07-30T08:14:01;2.50;;;1.77;;
4508;SDS011;2267;48.816;9.230;2023-07-30T08:16:28;2.47;;;1.80;;
4508;SDS011;2267;48.816;9.230;2023-07-30T08:18:55;4.30;;;2.53;;
4508;SDS011;2267;48.816;9.230;2023-07-30T08:21:22;3.60;;;1.83;;
4508;SDS011;2267;48.816;9.230;2023-07-30T08:23:49;2.93;;;1.50;;
4508;SDS011;2267;48.816;9.230;2023-07-30T08:26:15;2.10;;;1.67;;
4508;SDS011;2267;48.816;9.230;2023-07-30T08:28:42;2.20;;;1.43;;
4508;SDS011;2267;48.816;9.230;2023-07-30T08:31:09;1.93;;;1.50;;
4508;SDS011;2267;48.816;9.230;2023-07-30T08:33:36;2.50;;;1.90;;
4508;SDS011;2267;48.816;9.230;2023-07-30T08:36:02;2.73;;;1.60;;
4508;SDS011;2267;48.816;9.230;2023-07-30T08:38:29;3.10;;;1.50;;
4508;SDS011;2267;48.816;9.230;2023-07-30T08:40:56;2.40;;;1.70;;
4508;SDS011;2267;48.816;9.230;2023-07-30T08:43:23;2.57;;;1.83;;
4508;SDS011;2267;48.816;9.230;2023-07-30T08:45:50;2.30;;;1.77;;
4508;SDS011;2267;48.816;9.230;2023-07-30T08:48:17;2.40;;;1.43;;
4508;SDS011;2267;48.816;9.230;2023-07-30T08:50:44;2.77;;;1.67;;
4508;SDS011;2267;48.816;9.230;2023-07-30T08:53:11;4.13;;;1.93;;
4508;SDS011;2267;48.816;9.230;2023-07-30T08:55:40;2.47;;;1.50;;
4508;SDS011;2267;48.816;9.230;2023-07-30T08:58:07;2.50;;;1.73;;
4508;SDS011;2267;48.816;9.230;2023-07-30T09:00:36;2.33;;;1.70;;
4508;SDS011;2267;48.816;9.230;2023-07-30T09:03:04;2.70;;;1.80;;
4508;SDS011;2267;48.816;9.230;2023-07-30T09:05:33;3.20;;;1.83;;
4508;SDS011;2267;48.816;9.230;2023-07-30T09:08:00;2.30;;;1.50;;
4508;SDS011;2267;48.816;9.230;2023-07-30T09:10:26;2.20;;;1.60;;
4508;SDS011;2267;48.816;9.230;2023-07-30T09:12:54;2.10;;;1.87;;
4508;SDS011;2267;48.816;9.230;2023-07-30T09:15:33;3.40;;;1.83;;
4508;SDS011;2267;48.816;9.230;2023-07-30T09:18:04;1.97;;;1.60;;
4508;SDS011;2267;48.816;9.230;2023-07-30T09:20:38;4.03;;;2.00;;
4508;SDS011;2267;48.816;9.230;2023-07-30T09:23:07;3.23;;;1.90;;
4508;SDS011;2267;48.816;9.230;2023-07-30T09:25:35;2.40;;;2.07;;
4508;SDS011;2267;48.816;9.230;2023-07-30T09:28:03;2.57;;;1.63;;
4508;SDS011;2267;48.816;9.230;2023-07-30T09:30:31;2.87;;;1.83;;
4508;SDS011;2267;48.816;9.230;2023-07-30T09:32:59;3.47;;;1.80;;
4508;SDS011;2267;48.816;9.230;2023-07-30T09:35:26;2.60;;;2.20;;
4508;SDS011;2267;48.816;9.230;2023-07-30T09:37:59;2.20;;;1.73;;
4508;SDS011;2267;48.816;9.230;2023-07-30T09:40:32;3.60;;;1.83;;
4508;SDS011;2267;48.816;9.230;2023-07-30T09:43:02;2.77;;;1.87;;
4508;SDS011;2267;48.816;9.230;2023-07-30T09:45:32;3.53;;;2.27;;
4508;SDS011;2267;48.816;9.230;2023-07-30T09:48:02;3.40;;;2.37;;
4508;SDS011;2267;48.816;9.230;2023-07-30T09:50:33;3.00;;;2.07;;
4508;SDS011;2267;48.816;9.230;2023-07-30T09:53:00;3.93;;;1.93;;
4508;SDS011;2267;48.816;9.230;2023-07-30T09:55:28;3.40;;;1.83;;
4508;SDS011;2267;48.816;9.230;2023-07-30T09:57:55;3.13;;;1.80;;
4508;SDS011;2267;48.816;9.230;2023-07-30T10:00:22;3.00;;;2.30;;
4508;SDS011;2267;48.816;9.230;2023-07-30T10:02:49;4.40;;;2.30;;
4508;SDS011;2267;48.816;9.230;2023-07-30T10:05:19;2.90;;;2.13;;
4508;SDS011;2267;48.816;9.230;2023-07-30T10:07:55;2.73;;;1.60;;
4508;SDS011;2267;48.816;9.230;2023-07-30T10:10:43;3.10;;;2.20;;
4508;SDS011;2267;48.816;9.230;2023-07-30T10:13:12;4.03;;;2.10;;
4508;SDS011;2267;48.816;9.230;2023-07-30T10:15:39;2.43;;;1.80;;
4508;SDS011;2267;48.816;9.230;2023-07-30T10:18:06;4.43;;;2.30;;
4508;SDS011;2267;48.816;9.230;2023-07-30T10:20:33;2.77;;;2.20;;
4508;SDS011;2267;48.816;9.230;2023-07-30T10:23:04;4.63;;;2.80;;
4508;SDS011;2267;48.816;9.230;2023-07-30T10:25:45;3.20;;;2.53;;
4508;SDS011;2267;48.816;9.230;2023-07-30T10:31:10;2.63;;;2.13;;
4508;SDS011;2267;48.816;9.230;2023-07-30T10:36:17;2.70;;;2.23;;
4508;SDS011;2267;48.816;9.230;2023-07-30T10:38:45;2.83;;;2.17;;
4508;SDS011;2267;48.816;9.230;2023-07-30T10:41:14;2.60;;;2.17;;
4508;SDS011;2267;48.816;9.230;2023-07-30T10:43:48;3.10;;;2.10;;
4508;SDS011;2267;48.816;9.230;2023-07-30T10:46:17;2.50;;;2.27;;
4508;SDS011;2267;48.816;9.230;2023-07-30T10:48:46;2.20;;;1.80;;
4508;SDS011;2267;48.816;9.230;2023-07-30T10:51:15;3.73;;;2.40;;
4508;SDS011;2267;48.816;9.230;2023-07-30T10:53:44;3.13;;;1.97;;
4508;SDS011;2267;48.816;9.230;2023-07-30T10:56:11;2.50;;;2.07;;
4508;SDS011;2267;48.816;9.230;2023-07-30T10:58:39;3.33;;;2.17;;
4508;SDS011;2267;48.816;9.230;2023-07-30T11:01:06;3.63;;;2.40;;
4508;SDS011;2267;48.816;9.230;2023-07-30T11:03:34;4.70;;;2.80;;
4508;SDS011;2267;48.816;9.230;2023-07-30T11:06:02;4.20;;;2.70;;
4508;SDS011;2267;48.816;9.230;2023-07-30T11:08:39;3.13;;;2.57;;
4508;SDS011;2267;48.816;9.230;2023-07-30T11:11:08;3.73;;;2.60;;
4508;SDS011;2267;48.816;9.230;2023-07-30T11:13:36;2.93;;;2.10;;
4508;SDS011;2267;48.816;9.230;2023-07-30T11:16:12;3.60;;;2.43;;
4508;SDS011;2267;48.816;9.230;2023-07-30T11:18:40;3.10;;;2.10;;
4508;SDS011;2267;48.816;9.230;2023-07-30T11:21:08;4.00;;;2.30;;
4508;SDS011;2267;48.816;9.230;2023-07-30T11:23:39;3.33;;;1.97;;
4508;SDS011;2267;48.816;9.230;2023-07-30T11:26:17;2.97;;;2.07;;
4508;SDS011;2267;48.816;9.230;2023-07-30T11:28:45;3.23;;;2.43;;
4508;SDS011;2267;48.816;9.230;2023-07-30T11:31:13;4.13;;;2.40;;
4508;SDS011;2267;48.816;9.230;2023-07-30T11:33:46;2.77;;;2.30;;
4508;SDS011;2267;48.816;9.230;2023-07-30T11:36:21;3.40;;;2.63;;
4508;SDS011;2267;48.816;9.230;2023-07-30T11:38:50;3.30;;;2.50;;
4508;SDS011;2267;48.816;9.230;2023-07-30T11:41:19;2.50;;;1.93;;
4508;SDS011;2267;48.816;9.230;2023-07-30T11:43:49;3.40;;;1.83;;
4508;SDS011;2267;48.816;9.230;2023-07-30T11:46:18;3.70;;;1.97;;
4508;SDS011;2267;48.816;9.230;2023-07-30T11:48:50;4.40;;;2.47;;
4508;SDS011;2267;48.816;9.230;2023-07-30T11:51:36;2.40;;;2.10;;
4508;SDS011;2267;48.816;9.230;2023-07-30T11:54:03;6.83;;;2.20;;
4508;SDS011;2267;48.816;9.230;2023-07-30T11:56:31;3.60;;;2.37;;
4508;SDS011;2267;48.816;9.230;2023-07-30T11:59:00;3.63;;;2.40;;
4508;SDS011;2267;48.816;9.230;2023-07-30T12:01:30;2.90;;;2.00;;
4508;SDS011;2267;48.816;9.230;2023-07-30T12:04:00;4.50;;;2.27;;
4508;SDS011;2267;48.816;9.230;2023-07-30T12:06:38;2.67;;;2.10;;
4508;SDS011;2267;48.816;9.230;2023-07-30T12:09:15;2.53;;;1.70;;
4508;SDS011;2267;48.816;9.230;2023-07-30T12:11:44;2.40;;;1.73;;
4508;SDS011;2267;48.816;9.230;2023-07-30T12:14:14;2.90;;;2.07;;
4508;SDS011;2267;48.816;9.230;2023-07-30T12:16:41;3.47;;;2.20;;
4508;SDS011;2267;48.816;9.230;2023-07-30T12:19:08;3.23;;;2.20;;
4508;SDS011;2267;48.816;9.230;2023-07-30T12:21:35;3.50;;;2.27;;
4508;SDS011;2267;48.816;9.230;2023-07-30T12:24:05;3.83;;;2.00;;
4508;SDS011;2267;48.816;9.230;2023-07-30T12:26:32;4.53;;;2.10;;
4508;SDS011;2267;48.816;9.230;2023-07-30T12:28:58;4.23;;;1.90;;
4508;SDS011;2267;48.816;9.230;2023-07-30T12:31:25;3.07;;;2.23;;
4508;SDS011;2267;48.816;9.230;2023-07-30T12:33:52;4.10;;;2.10;;
4508;SDS011;2267;48.816;9.230;2023-07-30T12:36:19;2.60;;;1.93;;
4508;SDS011;2267;48.816;9.230;2023-07-30T12:38:46;3.10;;;1.80;;
4508;SDS011;2267;48.816;9.230;2023-07-30T12:41:13;2.30;;;2.07;;
4508;SDS011;2267;48.816;9.230;2023-07-30T12:43:39;2.90;;;1.87;;
4508;SDS011;2267;48.816;9.230;2023-07-30T12:46:06;3.50;;;1.90;;
4508;SDS011;2267;48.816;9.230;2023-07-30T12:48:33;2.93;;;1.63;;
4508;SDS011;2267;48.816;9.230;2023-07-30T12:51:00;2.57;;;2.10;;
4508;SDS011;2267;48.816;9.230;2023-07-30T12:53:28;5.17;;;2.40;;
4508;SDS011;2267;48.816;9.230;2023-07-30T12:55:55;2.30;;;1.77;;
4508;SDS011;2267;48.816;9.230;2023-07-30T12:58:22;2.53;;;2.03;;
4508;SDS011;2267;48.816;9.230;2023-07-30T13:00:49;2.37;;;1.60;;
4508;SDS011;2267;48.816;9.230;2023-07-30T13:03:16;5.83;;;2.53;;
4508;SDS011;2267;48.816;9.230;2023-07-30T13:05:43;4.10;;;1.90;;
4508;SDS011;2267;48.816;9.230;2023-07-30T13:08:09;2.73;;;1.80;;
4508;SDS011;2267;48.816;9.230;2023-07-30T13:10:36;3.00;;;2.10;;
4508;SDS011;2267;48.816;9.230;2023-07-30T13:13:03;2.20;;;1.70;;
4508;SDS011;2267;48.816;9.230;2023-07-30T13:15:30;3.87;;;2.00;;
4508;SDS011;2267;48.816;9.230;2023-07-30T13:17:57;3.20;;;1.77;;
4508;SDS011;2267;48.816;9.230;2023-07-30T13:20:24;2.20;;;1.63;;
4508;SDS011;2267;48.816;9.230;2023-07-30T13:22:50;3.43;;;1.73;;
4508;SDS011;2267;48.816;9.230;2023-07-30T13:25:18;4.43;;;1.90;;
4508;SDS011;2267;48.816;9.230;2023-07-30T13:27:46;3.20;;;2.10;;
4508;SDS011;2267;48.816;9.230;2023-07-30T13:30:13;3.43;;;1.60;;
4508;SDS011;2267;48.816;9.230;2023-07-30T13:32:39;3.07;;;2.37;;
4508;SDS011;2267;48.816;9.230;2023-07-30T13:35:06;2.47;;;1.80;;
4508;SDS011;2267;48.816;9.230;2023-07-30T13:37:33;2.83;;;1.93;;
4508;SDS011;2267;48.816;9.230;2023-07-30T13:40:00;2.60;;;1.80;;
4508;SDS011;2267;48.816;9.230;2023-07-30T13:42:27;2.30;;;1.57;;
4508;SDS011;2267;48.816;9.230;2023-07-30T13:44:54;2.17;;;1.60;;
4508;SDS011;2267;48.816;9.230;2023-07-30T13:47:21;4.93;;;1.93;;
4508;SDS011;2267;48.816;9.230;2023-07-30T13:49:47;2.63;;;1.40;;
4508;SDS011;2267;48.816;9.230;2023-07-30T13:52:14;3.50;;;1.70;;
4508;SDS011;2267;48.816;9.230;2023-07-30T13:54:41;3.40;;;2.07;;
4508;SDS011;2267;48.816;9.230;2023-07-30T13:57:08;2.83;;;1.70;;
4508;SDS011;2267;48.816;9.230;2023-07-30T13:59:35;3.90;;;1.93;;
4508;SDS011;2267;48.816;9.230;2023-07-30T14:02:02;3.20;;;1.93;;
4508;SDS011;2267;48.816;9.230;2023-07-30T14:04:29;2.73;;;1.40;;
4508;SDS011;2267;48.816;9.230;2023-07-30T14:06:56;2.30;;;1.30;;
4508;SDS011;2267;48.816;9.230;2023-07-30T14:09:23;4.60;;;2.33;;
4508;SDS011;2267;48.816;9.230;2023-07-30T14:11:51;7.40;;;2.17;;
4508;SDS011;2267;48.816;9.230;2023-07-30T14:14:18;2.70;;;2.20;;
4508;SDS011;2267;48.816;9.230;2023-07-30T14:16:46;3.50;;;1.50;;
4508;SDS011;2267;48.816;9.230;2023-07-30T14:19:14;2.83;;;1.70;;
4508;SDS011;2267;48.816;9.230;2023-07-30T14:21:40;3.90;;;1.63;;
4508;SDS011;2267;48.816;9.230;2023-07-30T14:24:10;3.73;;;2.00;;
4508;SDS011;2267;48.816;9.230;2023-07-30T14:26:37;3.73;;;1.77;;
4508;SDS011;2267;48.816;9.230;2023-07-30T14:29:06;4.00;;;1.70;;
4508;SDS011;2267;48.816;9.230;2023-07-30T14:31:33;2.30;;;1.60;;
4508;SDS011;2267;48.816;9.230;2023-07-30T14:33:59;4.63;;;1.80;;
4508;SDS011;2267;48.816;9.230;2023-07-30T14:36:26;3.10;;;1.60;;
4508;SDS011;2267;48.816;9.230;2023-07-30T14:38:53;6.10;;;2.07;;
4508;SDS011;2267;48.816;9.230;2023-07-30T14:41:20;3.30;;;1.80;;
4508;SDS011;2267;48.816;9.230;2023-07-30T14:43:47;2.60;;;1.70;;
4508;SDS011;2267;48.816;9.230;2023-07-30T14:46:13;4.23;;;1.90;;
4508;SDS011;2267;48.816;9.230;2023-07-30T14:48:41;3.00;;;1.83;;
4508;SDS011;2267;48.816;9.230;2023-07-30T14:51:08;4.87;;;2.33;;
4508;SDS011;2267;48.816;9.230;2023-07-30T14:53:36;2.57;;;1.30;;
4508;SDS011;2267;48.816;9.230;2023-07-30T14:56:03;2.93;;;1.60;;
4508;SDS011;2267;48.816;9.230;2023-07-30T14:58:30;3.00;;;1.67;;
4508;SDS011;2267;48.816;9.230;2023-07-30T15:00:57;3.13;;;1.57;;
4508;SDS011;2267;48.816;9.230;2023-07-30T15:03:24;2.90;;;1.63;;
4508;SDS011;2267;48.816;9.230;2023-07-30T15:05:51;4.40;;;1.70;;
4508;SDS011;2267;48.816;9.230;2023-07-30T15:08:17;3.13;;;1.60;;
4508;SDS011;2267;48.816;9.230;2023-07-30T15:10:45;3.07;;;1.87;;
4508;SDS011;2267;48.816;9.230;2023-07-30T15:13:12;4.83;;;1.77;;
4508;SDS011;2267;48.816;9.230;2023-07-30T15:15:39;3.83;;;1.40;;
4508;SDS011;2267;48.816;9.230;2023-07-30T15:18:05;3.60;;;1.60;;
4508;SDS011;2267;48.816;9.230;2023-07-30T15:20:34;3.60;;;1.40;;
4508;SDS011;2267;48.816;9.230;2023-07-30T15:23:01;3.80;;;1.73;;
4508;SDS011;2267;48.816;9.230;2023-07-30T15:25:28;3.50;;;1.80;;